Time;durP1;ratioP1;P1;durP2;ratioP2;P2;SDS_P1;SDS_P2;PMS_P1;PMS_P2;Temp;Humidity;BMP_temperature;BMP_pressure;BME280_temperature;BME280_humidity;BME280_pressure;Samples;Min_cycle;Max_cycle;Signal;HPM_P1;HPM_P2
2023/04/16 00:01:00;;;;;;;21.65;19.27;;;;;;;;;;5074950;28;20715;-87
2023/04/16 00:03:28;;;;;;;21.13;18.83;;;;;;;;;;5074555;28;20312;-88
2023/04/16 00:05:55;;;;;;;22.58;18.95;;;;;;;;;;5075007;28;20224;-88
2023/04/16 00:08:24;;;;;;;21.65;18.52;;;;;;;;;;5074676;28;20201;-85
2023/04/16 00:10:52;;;;;;;22.80;19.45;;;;;;;;;;5074568;28;20700;-87
2023/04/16 00:13:20;;;;;;;22.67;18.23;;;;;;;;;;5074606;28;20289;-88
2023/04/16 00:15:49;;;;;;;23.42;18.08;;;;;;;;;;5074336;28;20287;-86
2023/04/16 00:18:16;;;;;;;21.75;17.95;;;;;;;;;;5074445;28;20284;-86
2023/04/16 00:20:44;;;;;;;18.38;16.40;;;;;;;;;;5074447;28;20201;-88
2023/04/16 00:23:11;;;;;;;22.10;19.58;;;;;;;;;;5074367;28;20288;-87
2023/04/16 00:25:39;;;;;;;24.17;18.92;;;;;;;;;;5073928;28;20689;-87
2023/04/16 00:28:07;;;;;;;25.33;20.35;;;;;;;;;;5074342;28;20189;-85
2023/04/16 00:30:35;;;;;;;33.35;26.58;;;;;;;;;;5074245;28;20267;-87
2023/04/16 00:33:04;;;;;;;30.40;22.77;;;;;;;;;;5074354;28;20280;-85
2023/04/16 00:35:32;;;;;;;23.80;19.45;;;;;;;;;;5074573;28;20194;-87
2023/04/16 00:37:59;;;;;;;22.63;18.42;;;;;;;;;;5073998;28;20199;-87
2023/04/16 00:40:28;;;;;;;21.65;18.75;;;;;;;;;;5073638;28;20244;-85
2023/04/16 00:42:56;;;;;;;21.40;18.77;;;;;;;;;;5073832;28;20205;-88
2023/04/16 00:45:23;;;;;;;21.70;19.33;;;;;;;;;;5074093;28;20765;-86
2023/04/16 00:47:51;;;;;;;20.83;18.50;;;;;;;;;;5073675;28;20194;-88
2023/04/16 00:50:20;;;;;;;24.05;18.45;;;;;;;;;;5073557;28;20205;-87
2023/04/16 00:52:48;;;;;;;19.77;17.70;;;;;;;;;;5073666;28;20197;-87
2023/04/16 00:55:17;;;;;;;20.23;18.05;;;;;;;;;;5073332;28;20321;-86
2023/04/16 00:57:45;;;;;;;21.17;18.73;;;;;;;;;;5073909;28;20197;-88
2023/04/16 01:00:14;;;;;;;21.63;17.77;;;;;;;;;;5073425;28;20220;-87
2023/04/16 01:02:41;;;;;;;22.50;19.30;;;;;;;;;;5073689;28;20654;-87
2023/04/16 01:05:10;;;;;;;21.77;19.45;;;;;;;;;;5073429;28;20300;-87
2023/04/16 01:07:39;;;;;;;20.08;17.88;;;;;;;;;;5073060;28;20217;-85
2023/04/16 01:10:07;;;;;;;23.25;19.58;;;;;;;;;;5073264;28;20217;-88
2023/04/16 01:12:35;;;;;;;21.55;19.20;;;;;;;;;;5073315;28;20240;-88
2023/04/16 01:15:03;;;;;;;21.98;19.55;;;;;;;;;;5073209;28;20241;-87
2023/04/16 01:17:30;;;;;;;21.65;19.05;;;;;;;;;;5073243;28;20697;-85
2023/04/16 01:20:00;;;;;;;22.23;19.75;;;;;;;;;;5073003;28;20221;-87
2023/04/16 01:22:29;;;;;;;22.77;19.55;;;;;;;;;;5073058;28;20305;-87
2023/04/16 01:24:56;;;;;;;20.45;18.25;;;;;;;;;;5072754;28;20224;-86
2023/04/16 01:27:24;;;;;;;20.92;18.60;;;;;;;;;;5073115;28;20311;-87
2023/04/16 01:29:52;;;;;;;22.27;19.85;;;;;;;;;;5072824;28;20279;-87
2023/04/16 01:32:19;;;;;;;24.42;20.58;;;;;;;;;;5073076;28;20280;-87
2023/04/16 01:34:47;;;;;;;19.77;17.67;;;;;;;;;;5072972;28;20593;-88
2023/04/16 01:37:14;;;;;;;20.98;18.02;;;;;;;;;;5072903;28;20292;-87
2023/04/16 01:39:43;;;;;;;24.27;19.38;;;;;;;;;;5072832;28;20288;-87
2023/04/16 01:42:11;;;;;;;23.05;19.98;;;;;;;;;;5072736;28;20232;-86
2023/04/16 01:44:38;;;;;;;20.70;18.50;;;;;;;;;;5072662;28;20316;-87
2023/04/16 01:47:06;;;;;;;22.70;19.63;;;;;;;;;;5072651;28;20225;-87
2023/04/16 01:49:33;;;;;;;25.55;19.30;;;;;;;;;;5072554;28;20225;-87
2023/04/16 01:52:01;;;;;;;22.48;20.05;;;;;;;;;;5072577;28;20229;-87
2023/04/16 01:54:28;;;;;;;23.20;20.67;;;;;;;;;;5069895;28;20361;-87
2023/04/16 01:56:57;;;;;;;22.15;19.88;;;;;;;;;;5052572;28;20288;-88
2023/04/16 01:59:25;;;;;;;24.88;21.70;;;;;;;;;;5052537;28;20232;-87
2023/04/16 02:01:52;;;;;;;24.92;21.40;;;;;;;;;;5052015;28;20223;-86
2023/04/16 02:04:20;;;;;;;21.90;18.98;;;;;;;;;;5057568;28;20241;-87
2023/04/16 02:06:47;;;;;;;24.65;21.63;;;;;;;;;;5092416;28;20220;-86
2023/04/16 02:09:15;;;;;;;21.00;18.73;;;;;;;;;;5092261;28;20211;-86
2023/04/16 02:11:43;;;;;;;26.23;21.58;;;;;;;;;;5092881;28;20192;-86
2023/04/16 02:14:12;;;;;;;23.05;20.63;;;;;;;;;;5092528;28;20283;-87
2023/04/16 02:16:39;;;;;;;24.73;21.13;;;;;;;;;;5092623;28;20239;-87
2023/04/16 02:19:06;;;;;;;24.10;20.80;;;;;;;;;;5092588;28;20291;-87
2023/04/16 02:21:34;;;;;;;24.10;21.42;;;;;;;;;;5092875;28;20247;-85
2023/04/16 02:24:01;;;;;;;24.98;22.27;;;;;;;;;;5092735;28;20251;-86
2023/04/16 02:26:29;;;;;;;21.92;19.63;;;;;;;;;;5072714;28;20236;-88
2023/04/16 02:28:57;;;;;;;23.27;20.30;;;;;;;;;;5072336;28;20646;-88
2023/04/16 02:31:27;;;;;;;24.65;21.15;;;;;;;;;;5072300;28;20292;-88
2023/04/16 02:33:55;;;;;;;20.90;18.33;;;;;;;;;;5072577;28;20244;-88
2023/04/16 02:36:22;;;;;;;18.90;16.90;;;;;;;;;;5072676;28;20211;-87
2023/04/16 02:38:50;;;;;;;22.88;18.27;;;;;;;;;;5072935;28;20246;-86
2023/04/16 02:41:17;;;;;;;19.60;16.95;;;;;;;;;;5073120;28;20201;-87
2023/04/16 02:43:45;;;;;;;19.70;17.65;;;;;;;;;;5073002;28;20595;-87
2023/04/16 02:46:13;;;;;;;23.33;18.67;;;;;;;;;;5073314;28;20201;-88
2023/04/16 02:48:41;;;;;;;21.13;18.90;;;;;;;;;;5072644;28;20243;-88
2023/04/16 02:51:09;;;;;;;20.73;18.70;;;;;;;;;;5072658;28;20359;-87
2023/04/16 02:53:36;;;;;;;19.88;17.77;;;;;;;;;;5072684;28;20256;-86
2023/04/16 02:56:04;;;;;;;17.52;15.25;;;;;;;;;;5072818;28;20632;-90
2023/04/16 02:58:32;;;;;;;22.52;17.75;;;;;;;;;;5072527;28;20197;-89
2023/04/16 03:00:59;;;;;;;18.98;16.67;;;;;;;;;;5072255;28;20288;-90
2023/04/16 03:03:27;;;;;;;18.85;16.70;;;;;;;;;;5072222;28;20240;-88
2023/04/16 03:05:55;;;;;;;18.38;16.42;;;;;;;;;;5072441;28;20288;-90
2023/04/16 03:08:23;;;;;;;21.45;18.20;;;;;;;;;;5072307;28;20733;-88
2023/04/16 03:10:50;;;;;;;26.02;18.45;;;;;;;;;;5072412;28;20258;-90
2023/04/16 03:13:18;;;;;;;20.50;18.17;;;;;;;;;;5072278;28;20670;-90
2023/04/16 03:15:49;;;;;;;19.63;17.70;;;;;;;;;;5075122;28;20232;-89
2023/04/16 03:18:17;;;;;;;24.10;19.27;;;;;;;;;;5076032;28;20555;-91
2023/04/16 03:20:58;;;;;;;20.95;18.70;;;;;;;;;;5075188;28;20639;-90
2023/04/16 03:23:27;;;;;;;20.17;18.13;;;;;;;;;;5075253;28;20288;-89
2023/04/16 03:25:54;;;;;;;21.92;19.55;;;;;;;;;;5075889;28;20201;-90
2023/04/16 03:28:22;;;;;;;20.05;17.77;;;;;;;;;;5075596;28;20223;-91
2023/04/16 03:30:52;;;;;;;20.58;18.27;;;;;;;;;;5075676;28;20272;-90
2023/04/16 03:33:21;;;;;;;23.75;19.38;;;;;;;;;;5074963;28;20201;-90
2023/04/16 03:35:56;;;;;;;20.38;18.25;;;;;;;;;;5075622;28;20627;-90
2023/04/16 03:38:26;;;;;;;22.20;19.13;;;;;;;;;;5075383;28;20618;-89
2023/04/16 03:40:53;;;;;;;20.92;18.80;;;;;;;;;;5075558;28;20262;-89
2023/04/16 03:43:21;;;;;;;23.63;20.95;;;;;;;;;;5075264;28;20677;-90
2023/04/16 03:45:49;;;;;;;24.27;21.55;;;;;;;;;;5075159;28;20204;-90
2023/04/16 03:48:16;;;;;;;25.90;21.40;;;;;;;;;;5075264;28;20648;-87
2023/04/16 03:50:47;;;;;;;24.38;21.05;;;;;;;;;;5075428;28;20634;-89
2023/04/16 03:53:14;;;;;;;24.23;20.73;;;;;;;;;;5075176;28;20189;-90
2023/04/16 03:55:44;;;;;;;22.40;19.73;;;;;;;;;;5075481;28;20696;-90
2023/04/16 03:58:11;;;;;;;22.80;20.30;;;;;;;;;;5075258;28;20205;-90
2023/04/16 04:00:42;;;;;;;23.48;20.20;;;;;;;;;;5075071;28;20589;-90
2023/04/16 04:03:10;;;;;;;26.92;22.25;;;;;;;;;;5074735;28;20185;-90
2023/04/16 04:05:39;;;;;;;25.33;22.35;;;;;;;;;;5075024;28;20197;-91
2023/04/16 04:08:06;;;;;;;26.02;22.15;;;;;;;;;;5074849;28;20386;-89
2023/04/16 04:10:34;;;;;;;22.58;20.08;;;;;;;;;;5074234;28;20299;-90
2023/04/16 04:13:04;;;;;;;25.08;21.35;;;;;;;;;;5074808;28;20296;-90
2023/04/16 04:15:32;;;;;;;23.15;20.70;;;;;;;;;;5074788;28;20316;-90
2023/04/16 04:18:00;;;;;;;26.48;20.67;;;;;;;;;;5074870;28;20232;-90
2023/04/16 04:20:27;;;;;;;22.77;20.42;;;;;;;;;;5074832;28;20677;-88
2023/04/16 04:22:55;;;;;;;24.15;21.13;;;;;;;;;;5074622;28;20721;-89
2023/04/16 04:25:23;;;;;;;23.27;20.80;;;;;;;;;;5074454;28;20308;-90
2023/04/16 04:27:50;;;;;;;25.05;22.45;;;;;;;;;;5073750;28;20308;-90
2023/04/16 04:30:19;;;;;;;23.75;20.33;;;;;;;;;;5074178;28;20613;-90
2023/04/16 04:32:46;;;;;;;21.95;19.65;;;;;;;;;;5074338;28;20228;-90
2023/04/16 04:35:14;;;;;;;26.48;21.08;;;;;;;;;;5074282;28;20712;-90
2023/04/16 04:37:41;;;;;;;24.52;21.08;;;;;;;;;;5074322;28;20226;-90
2023/04/16 04:40:10;;;;;;;25.27;21.30;;;;;;;;;;5074454;28;20239;-90
2023/04/16 04:42:38;;;;;;;24.98;22.10;;;;;;;;;;5073807;28;20232;-89
2023/04/16 04:45:08;;;;;;;22.00;19.80;;;;;;;;;;5074349;28;20216;-90
2023/04/16 04:47:36;;;;;;;22.17;19.80;;;;;;;;;;5074413;28;20273;-90
2023/04/16 04:50:05;;;;;;;27.30;22.33;;;;;;;;;;5074098;28;20292;-89
2023/04/16 04:52:32;;;;;;;25.42;21.33;;;;;;;;;;5074059;28;20288;-90
2023/04/16 04:55:00;;;;;;;22.92;20.42;;;;;;;;;;5073899;28;20227;-90
2023/04/16 04:57:27;;;;;;;27.52;22.80;;;;;;;;;;5073982;28;20296;-90
2023/04/16 04:59:55;;;;;;;24.00;21.42;;;;;;;;;;5073193;28;20231;-89
2023/04/16 05:02:22;;;;;;;22.83;20.42;;;;;;;;;;5074451;28;20200;-90
2023/04/16 05:04:51;;;;;;;24.75;21.45;;;;;;;;;;5074829;28;20313;-88
2023/04/16 05:07:18;;;;;;;22.38;19.63;;;;;;;;;;5074889;28;20627;-90
2023/04/16 05:09:46;;;;;;;23.33;19.63;;;;;;;;;;5073280;28;20323;-90
2023/04/16 05:12:13;;;;;;;23.13;20.33;;;;;;;;;;5073495;28;20243;-90
2023/04/16 05:14:41;;;;;;;21.10;18.90;;;;;;;;;;5073342;28;20260;-88
2023/04/16 05:17:09;;;;;;;22.15;19.30;;;;;;;;;;5073398;28;20197;-90
2023/04/16 05:19:37;;;;;;;26.52;20.60;;;;;;;;;;5073288;28;20197;-90
2023/04/16 05:22:06;;;;;;;20.67;18.70;;;;;;;;;;5072966;28;20287;-90
2023/04/16 05:24:33;;;;;;;21.30;18.83;;;;;;;;;;5073955;28;20224;-91
2023/04/16 05:27:01;;;;;;;21.83;19.58;;;;;;;;;;5073801;28;20207;-89
2023/04/16 05:29:28;;;;;;;20.52;18.38;;;;;;;;;;5073283;28;20558;-90
2023/04/16 05:31:56;;;;;;;20.25;17.75;;;;;;;;;;5073054;28;20207;-90
2023/04/16 05:34:23;;;;;;;19.42;17.23;;;;;;;;;;5073535;28;20312;-89
2023/04/16 05:36:51;;;;;;;21.75;17.52;;;;;;;;;;5072764;28;20287;-90
2023/04/16 05:39:20;;;;;;;19.77;17.75;;;;;;;;;;5073248;28;20296;-89
2023/04/16 05:41:47;;;;;;;20.23;17.83;;;;;;;;;;5073990;28;20576;-89
2023/04/16 05:44:15;;;;;;;22.70;17.50;;;;;;;;;;5072891;28;20253;-90
2023/04/16 05:46:42;;;;;;;20.00;17.90;;;;;;;;;;5074066;28;20219;-89
2023/04/16 05:49:10;;;;;;;22.25;19.63;;;;;;;;;;5073143;28;20225;-90
2023/04/16 05:51:38;;;;;;;23.67;17.90;;;;;;;;;;5073445;28;20291;-90
2023/04/16 05:54:05;;;;;;;18.75;16.65;;;;;;;;;;5073114;28;20267;-90
2023/04/16 05:56:34;;;;;;;20.20;18.20;;;;;;;;;;5073196;28;20646;-90
2023/04/16 05:59:02;;;;;;;19.98;17.83;;;;;;;;;;5074115;28;20199;-90
2023/04/16 06:01:29;;;;;;;19.42;17.42;;;;;;;;;;5073262;28;20232;-90
2023/04/16 06:03:57;;;;;;;19.67;17.60;;;;;;;;;;5073473;28;20219;-90
2023/04/16 06:06:26;;;;;;;25.58;17.75;;;;;;;;;;5075038;28;20232;-90
2023/04/16 06:08:53;;;;;;;21.40;18.40;;;;;;;;;;5074306;28;20225;-89
2023/04/16 06:11:21;;;;;;;21.58;18.63;;;;;;;;;;5074062;28;20189;-89
2023/04/16 06:13:49;;;;;;;23.02;19.60;;;;;;;;;;5072717;28;20248;-89
2023/04/16 06:16:17;;;;;;;19.05;17.15;;;;;;;;;;5072793;28;20205;-90
2023/04/16 06:18:45;;;;;;;16.50;14.52;;;;;;;;;;5074291;28;20211;-90
2023/04/16 06:21:13;;;;;;;20.40;17.45;;;;;;;;;;5073181;28;20216;-90
2023/04/16 06:23:40;;;;;;;18.90;16.85;;;;;;;;;;5073259;28;20254;-90
2023/04/16 06:26:07;;;;;;;22.23;18.55;;;;;;;;;;5074397;28;20284;-91
2023/04/16 06:28:35;;;;;;;23.08;19.35;;;;;;;;;;5074158;28;20638;-91
2023/04/16 06:31:04;;;;;;;21.35;18.80;;;;;;;;;;5073161;28;20260;-89
2023/04/16 06:33:32;;;;;;;20.08;18.08;;;;;;;;;;5073166;28;20649;-90
2023/04/16 06:35:59;;;;;;;18.90;17.00;;;;;;;;;;5073126;28;20197;-91
2023/04/16 06:38:27;;;;;;;22.52;17.90;;;;;;;;;;5072478;28;20235;-90
2023/04/16 06:40:55;;;;;;;17.50;15.57;;;;;;;;;;5072005;28;20236;-89
2023/04/16 06:43:22;;;;;;;20.58;18.27;;;;;;;;;;5071891;28;20228;-89
2023/04/16 06:45:50;;;;;;;23.15;17.63;;;;;;;;;;5072110;28;20677;-90
2023/04/16 06:48:19;;;;;;;20.23;18.08;;;;;;;;;;5073369;28;20190;-90
2023/04/16 06:50:46;;;;;;;21.67;17.83;;;;;;;;;;5077296;28;20225;-90
2023/04/16 06:53:14;;;;;;;21.35;17.02;;;;;;;;;;5077748;28;20200;-89
2023/04/16 06:55:41;;;;;;;22.20;18.25;;;;;;;;;;5075903;28;20283;-89
2023/04/16 06:58:09;;;;;;;25.20;19.35;;;;;;;;;;5077305;28;20224;-89
2023/04/16 07:00:36;;;;;;;20.35;18.25;;;;;;;;;;5078928;28;20236;-89
2023/04/16 07:03:04;;;;;;;22.23;19.92;;;;;;;;;;5077977;28;20284;-90
2023/04/16 07:05:33;;;;;;;22.52;19.15;;;;;;;;;;5078827;28;20224;-90
2023/04/16 07:08:00;;;;;;;20.88;18.50;;;;;;;;;;5085422;28;20296;-90
2023/04/16 07:10:28;;;;;;;20.60;18.23;;;;;;;;;;5080818;28;20252;-89
2023/04/16 07:12:55;;;;;;;22.85;19.13;;;;;;;;;;5082344;28;20217;-90
2023/04/16 07:15:23;;;;;;;19.83;17.48;;;;;;;;;;5081793;28;20832;-89
2023/04/16 07:17:50;;;;;;;26.40;20.20;;;;;;;;;;5082239;28;20189;-91
2023/04/16 07:20:18;;;;;;;19.77;17.75;;;;;;;;;;5080791;28;20221;-90
2023/04/16 07:22:47;;;;;;;20.80;18.45;;;;;;;;;;5082040;28;20201;-90
2023/04/16 07:25:14;;;;;;;22.73;20.20;;;;;;;;;;5078708;28;20245;-89
2023/04/16 07:27:42;;;;;;;23.23;18.30;;;;;;;;;;5077571;28;20201;-91
2023/04/16 07:30:10;;;;;;;20.83;18.55;;;;;;;;;;5076183;28;20307;-90
2023/04/16 07:32:38;;;;;;;22.55;19.50;;;;;;;;;;5075083;28;20250;-90
2023/04/16 07:35:06;;;;;;;22.50;19.67;;;;;;;;;;5075362;28;20632;-90
2023/04/16 07:37:34;;;;;;;21.33;18.40;;;;;;;;;;5074938;28;20292;-89
2023/04/16 07:40:04;;;;;;;24.08;20.23;;;;;;;;;;5075015;28;20228;-89
2023/04/16 07:42:31;;;;;;;23.52;18.10;;;;;;;;;;5076769;28;20197;-91
2023/04/16 07:44:59;;;;;;;20.65;17.10;;;;;;;;;;5076277;28;20217;-91
2023/04/16 07:47:26;;;;;;;21.90;17.83;;;;;;;;;;5077927;28;20292;-89
2023/04/16 07:49:54;;;;;;;22.38;17.55;;;;;;;;;;5077470;28;20578;-90
2023/04/16 07:52:21;;;;;;;17.05;15.25;;;;;;;;;;5076418;28;20570;-91
2023/04/16 07:54:50;;;;;;;20.20;16.77;;;;;;;;;;5075827;28;20229;-89
2023/04/16 07:57:20;;;;;;;17.83;15.65;;;;;;;;;;5076863;28;20197;-90
2023/04/16 07:59:47;;;;;;;18.92;16.85;;;;;;;;;;5074987;28;20629;-90
2023/04/16 08:02:16;;;;;;;19.33;17.27;;;;;;;;;;5076498;28;20207;-89
2023/04/16 08:04:44;;;;;;;18.58;16.73;;;;;;;;;;5075704;28;20272;-90
2023/04/16 08:07:11;;;;;;;17.60;15.75;;;;;;;;;;5076061;28;20246;-90
2023/04/16 08:09:49;;;;;;;20.90;18.02;;;;;;;;;;5075169;28;20232;-90
2023/04/16 08:12:18;;;;;;;22.55;17.95;;;;;;;;;;5074812;28;20189;-89
2023/04/16 08:14:47;;;;;;;20.83;16.20;;;;;;;;;;5074433;28;20592;-89
2023/04/16 08:17:15;;;;;;;25.27;18.40;;;;;;;;;;5074428;28;20205;-87
2023/04/16 08:19:43;;;;;;;20.08;16.33;;;;;;;;;;5073756;28;20204;-87
2023/04/16 08:22:11;;;;;;;21.15;16.40;;;;;;;;;;5073915;28;20192;-87
2023/04/16 08:24:39;;;;;;;20.23;16.67;;;;;;;;;;5073458;28;20225;-91
2023/04/16 08:27:06;;;;;;;21.08;17.25;;;;;;;;;;5074463;28;20220;-88
2023/04/16 08:29:35;;;;;;;19.73;17.38;;;;;;;;;;5074310;28;20205;-87
2023/04/16 08:32:03;;;;;;;19.63;16.70;;;;;;;;;;5073954;28;20217;-88
2023/04/16 08:34:30;;;;;;;23.00;17.73;;;;;;;;;;5073641;28;20221;-88
2023/04/16 08:36:58;;;;;;;21.40;18.27;;;;;;;;;;5073674;28;20236;-88
2023/04/16 08:39:25;;;;;;;21.23;18.05;;;;;;;;;;5073543;28;20211;-87
2023/04/16 08:41:55;;;;;;;21.90;17.25;;;;;;;;;;5074262;28;20200;-87
2023/04/16 08:44:28;;;;;;;21.13;17.90;;;;;;;;;;5074050;28;20224;-87
2023/04/16 08:46:58;;;;;;;21.17;18.40;;;;;;;;;;5073987;28;20200;-88
2023/04/16 08:49:26;;;;;;;22.85;18.45;;;;;;;;;;5073944;28;20293;-87
2023/04/16 08:51:55;;;;;;;20.83;17.25;;;;;;;;;;5073983;28;20221;-87
2023/04/16 08:54:35;;;;;;;21.17;17.42;;;;;;;;;;5073348;28;20220;-88
2023/04/16 08:57:04;;;;;;;19.40;15.23;;;;;;;;;;5074282;28;20588;-85
2023/04/16 08:59:31;;;;;;;20.27;17.17;;;;;;;;;;5073094;28;20197;-84
2023/04/16 09:02:02;;;;;;;18.05;15.48;;;;;;;;;;5072346;28;20193;-85
2023/04/16 09:04:29;;;;;;;21.90;17.42;;;;;;;;;;5073055;28;20311;-84
2023/04/16 09:06:58;;;;;;;19.80;16.45;;;;;;;;;;5073337;28;20649;-85
2023/04/16 09:09:27;;;;;;;20.58;16.15;;;;;;;;;;5072901;28;20579;-84
2023/04/16 09:11:55;;;;;;;20.27;17.05;;;;;;;;;;5073214;28;20620;-85
2023/04/16 09:14:23;;;;;;;20.42;17.50;;;;;;;;;;5073003;28;20221;-84
2023/04/16 09:16:53;;;;;;;20.67;17.90;;;;;;;;;;5072830;28;20289;-84
2023/04/16 09:19:22;;;;;;;22.67;17.60;;;;;;;;;;5073036;28;20205;-84
2023/04/16 09:21:50;;;;;;;22.20;17.88;;;;;;;;;;5073107;28;20200;-85
2023/04/16 09:24:18;;;;;;;18.92;15.70;;;;;;;;;;5072724;28;20316;-84
2023/04/16 09:26:46;;;;;;;23.27;19.25;;;;;;;;;;5072816;28;20607;-84
2023/04/16 09:29:35;;;;;;;22.88;17.90;;;;;;;;;;5072756;28;20205;-84
2023/04/16 09:32:04;;;;;;;20.83;17.52;;;;;;;;;;5072830;28;20217;-84
2023/04/16 09:34:34;;;;;;;21.48;17.55;;;;;;;;;;5072805;28;20232;-85
2023/04/16 09:37:17;;;;;;;22.80;19.17;;;;;;;;;;5072780;28;20203;-84
2023/04/16 09:39:45;;;;;;;22.05;16.58;;;;;;;;;;5072369;28;20575;-85
2023/04/16 09:42:13;;;;;;;24.52;19.58;;;;;;;;;;5072344;28;20205;-85
2023/04/16 09:44:40;;;;;;;20.42;16.65;;;;;;;;;;5072290;28;20640;-83
2023/04/16 09:47:09;;;;;;;22.25;17.52;;;;;;;;;;5072575;28;20201;-84
2023/04/16 09:49:42;;;;;;;22.63;17.45;;;;;;;;;;5072385;28;20209;-83
2023/04/16 09:52:14;;;;;;;16.77;14.25;;;;;;;;;;5072888;28;20216;-85
2023/04/16 09:54:50;;;;;;;21.52;16.35;;;;;;;;;;5072627;28;20599;-85
2023/04/16 09:57:21;;;;;;;19.27;15.80;;;;;;;;;;5072612;28;20207;-84
2023/04/16 09:59:48;;;;;;;21.50;17.42;;;;;;;;;;5072669;28;20209;-84
2023/04/16 10:02:16;;;;;;;20.30;16.35;;;;;;;;;;5072485;28;20197;-85
2023/04/16 10:04:52;;;;;;;22.25;17.63;;;;;;;;;;5071787;28;20286;-84
2023/04/16 10:07:21;;;;;;;19.85;16.77;;;;;;;;;;5073202;28;20242;-83
2023/04/16 10:09:49;;;;;;;21.77;17.55;;;;;;;;;;5071917;28;20216;-85
2023/04/16 10:12:17;;;;;;;23.08;17.25;;;;;;;;;;5072570;28;20690;-84
2023/04/16 10:14:44;;;;;;;18.25;16.33;;;;;;;;;;5072853;28;20259;-85
2023/04/16 10:17:12;;;;;;;21.15;16.95;;;;;;;;;;5072160;28;20280;-84
2023/04/16 10:19:40;;;;;;;21.75;17.80;;;;;;;;;;5071909;28;20207;-85
2023/04/16 10:22:09;;;;;;;20.23;16.25;;;;;;;;;;5072465;28;20280;-84
2023/04/16 10:24:36;;;;;;;15.70;13.70;;;;;;;;;;5075412;28;20312;-85
2023/04/16 10:27:04;;;;;;;19.58;15.80;;;;;;;;;;5076334;28;20235;-84
2023/04/16 10:29:32;;;;;;;17.80;14.75;;;;;;;;;;5076026;28;20273;-85
2023/04/16 10:32:00;;;;;;;18.65;15.45;;;;;;;;;;5076900;28;20311;-83
2023/04/16 10:34:28;;;;;;;19.65;14.48;;;;;;;;;;5076422;28;20243;-84
2023/04/16 10:36:56;;;;;;;15.48;13.88;;;;;;;;;;5076623;28;20401;-84
2023/04/16 10:39:27;;;;;;;15.65;13.73;;;;;;;;;;5076366;28;20293;-84
2023/04/16 10:42:09;;;;;;;18.27;15.63;;;;;;;;;;5076406;28;20280;-84
2023/04/16 10:44:36;;;;;;;16.45;14.23;;;;;;;;;;5076321;28;20734;-85
2023/04/16 10:47:09;;;;;;;16.38;12.73;;;;;;;;;;5075914;28;20289;-85
2023/04/16 10:49:37;;;;;;;15.48;13.82;;;;;;;;;;5076344;28;20220;-85
2023/04/16 10:52:11;;;;;;;16.40;14.38;;;;;;;;;;5075975;28;20707;-84
2023/04/16 10:54:41;;;;;;;17.80;14.20;;;;;;;;;;5076198;28;20225;-84
2023/04/16 10:57:11;;;;;;;16.52;14.02;;;;;;;;;;5076599;28;20291;-83
2023/04/16 10:59:39;;;;;;;15.57;12.88;;;;;;;;;;5076365;28;20201;-85
2023/04/16 11:02:09;;;;;;;13.65;11.93;;;;;;;;;;5075511;28;20205;-85
2023/04/16 11:04:38;;;;;;;15.18;13.35;;;;;;;;;;5075447;28;20224;-85
2023/04/16 11:07:15;;;;;;;13.15;11.82;;;;;;;;;;5076036;28;20200;-85
2023/04/16 11:09:52;;;;;;;14.80;13.07;;;;;;;;;;5075460;28;20243;-85
2023/04/16 11:12:22;;;;;;;13.43;12.02;;;;;;;;;;5075494;28;20681;-86
2023/04/16 11:14:51;;;;;;;14.45;12.75;;;;;;;;;;5075392;28;20299;-86
2023/04/16 11:17:20;;;;;;;13.13;11.73;;;;;;;;;;5075412;28;20194;-86
2023/04/16 11:19:47;;;;;;;12.73;11.38;;;;;;;;;;5075514;28;20292;-86
2023/04/16 11:22:17;;;;;;;14.55;12.90;;;;;;;;;;5075649;28;20646;-85
2023/04/16 11:24:47;;;;;;;13.32;11.93;;;;;;;;;;5075575;28;20225;-86
2023/04/16 11:27:15;;;;;;;12.88;11.55;;;;;;;;;;5075661;28;20311;-86
2023/04/16 11:29:42;;;;;;;13.15;11.85;;;;;;;;;;5074841;28;20209;-85
2023/04/16 11:32:10;;;;;;;15.00;12.57;;;;;;;;;;5075764;28;20599;-87
2023/04/16 11:34:45;;;;;;;14.10;12.48;;;;;;;;;;5074359;28;20246;-86
2023/04/16 11:37:12;;;;;;;16.48;14.70;;;;;;;;;;5075301;28;20191;-85
2023/04/16 11:39:51;;;;;;;16.98;13.98;;;;;;;;;;5074644;28;20291;-85
2023/04/16 11:42:22;;;;;;;15.80;14.05;;;;;;;;;;5075185;28;20193;-86
2023/04/16 11:44:54;;;;;;;16.48;14.73;;;;;;;;;;5074566;28;20220;-86
2023/04/16 11:47:22;;;;;;;17.75;14.45;;;;;;;;;;5074944;28;20204;-85
2023/04/16 11:49:49;;;;;;;16.02;14.20;;;;;;;;;;5074803;28;20658;-86
2023/04/16 11:52:27;;;;;;;16.05;14.38;;;;;;;;;;5074716;28;20220;-86
2023/04/16 11:54:56;;;;;;;17.70;15.00;;;;;;;;;;5074852;28;20209;-86
2023/04/16 11:57:28;;;;;;;16.60;14.80;;;;;;;;;;5074869;28;20292;-86
2023/04/16 11:59:56;;;;;;;17.33;15.38;;;;;;;;;;5074210;28;20291;-87
2023/04/16 12:02:37;;;;;;;15.23;12.93;;;;;;;;;;5074662;28;20188;-87
2023/04/16 12:05:06;;;;;;;17.15;15.35;;;;;;;;;;5074516;28;20227;-86
2023/04/16 12:07:43;;;;;;;16.73;15.02;;;;;;;;;;5074534;28;20646;-87
2023/04/16 12:10:13;;;;;;;18.52;14.20;;;;;;;;;;5074119;28;20663;-87
2023/04/16 12:12:40;;;;;;;14.55;12.93;;;;;;;;;;5074210;28;20311;-86
2023/04/16 12:15:09;;;;;;;13.45;12.05;;;;;;;;;;5073657;28;20680;-87
2023/04/16 12:17:38;;;;;;;15.95;13.57;;;;;;;;;;5074008;28;20212;-87
2023/04/16 12:20:11;;;;;;;17.23;15.48;;;;;;;;;;5074172;28;20669;-87
2023/04/16 12:22:40;;;;;;;20.67;15.77;;;;;;;;;;5074425;28;20189;-85
2023/04/16 12:25:12;;;;;;;16.73;15.02;;;;;;;;;;5074187;28;20221;-85
2023/04/16 12:27:47;;;;;;;17.50;15.70;;;;;;;;;;5074515;28;20278;-86
2023/04/16 12:30:16;;;;;;;15.60;13.82;;;;;;;;;;5074188;28;20284;-86
2023/04/16 12:32:46;;;;;;;15.43;13.27;;;;;;;;;;5073766;28;20225;-86
2023/04/16 12:35:14;;;;;;;15.63;14.02;;;;;;;;;;5073641;28;20767;-86
2023/04/16 12:37:41;;;;;;;16.17;14.38;;;;;;;;;;5073853;28;20378;-86
2023/04/16 12:40:10;;;;;;;17.45;15.23;;;;;;;;;;5073162;28;20726;-86
2023/04/16 12:42:39;;;;;;;17.83;14.93;;;;;;;;;;5073261;28;20204;-87
2023/04/16 12:45:07;;;;;;;19.27;15.38;;;;;;;;;;5073088;28;20684;-87
2023/04/16 12:47:35;;;;;;;19.27;14.45;;;;;;;;;;5073363;28;20232;-86
2023/04/16 12:50:02;;;;;;;19.45;15.77;;;;;;;;;;5073105;28;20729;-86
2023/04/16 12:52:30;;;;;;;14.70;13.20;;;;;;;;;;5072786;28;20204;-86
2023/04/16 12:54:57;;;;;;;16.05;14.40;;;;;;;;;;5072996;28;20319;-86
2023/04/16 12:57:27;;;;;;;16.13;14.13;;;;;;;;;;5073327;28;20292;-86
2023/04/16 12:59:56;;;;;;;16.50;14.77;;;;;;;;;;5073113;28;20205;-87
2023/04/16 13:02:24;;;;;;;15.95;14.25;;;;;;;;;;5073387;28;20620;-87
2023/04/16 13:04:53;;;;;;;17.65;15.85;;;;;;;;;;5072968;28;20221;-86
2023/04/16 13:07:20;;;;;;;16.85;15.13;;;;;;;;;;5072990;28;20292;-86
2023/04/16 13:09:48;;;;;;;17.98;14.57;;;;;;;;;;5073407;28;20205;-86
2023/04/16 13:12:15;;;;;;;21.50;17.08;;;;;;;;;;5072829;28;20196;-86
2023/04/16 13:14:43;;;;;;;17.48;15.57;;;;;;;;;;5072731;28;20307;-86
2023/04/16 13:17:12;;;;;;;16.25;14.50;;;;;;;;;;5072578;28;20683;-86
2023/04/16 13:19:39;;;;;;;15.07;13.50;;;;;;;;;;5073119;28;20296;-86
2023/04/16 13:22:07;;;;;;;16.02;14.30;;;;;;;;;;5072881;28;20299;-86
2023/04/16 13:24:34;;;;;;;19.08;16.42;;;;;;;;;;5072524;28;20221;-86
2023/04/16 13:27:02;;;;;;;20.38;15.73;;;;;;;;;;5073027;28;20658;-87
2023/04/16 13:29:29;;;;;;;18.77;16.80;;;;;;;;;;5072199;28;20309;-85
2023/04/16 13:31:57;;;;;;;18.60;16.52;;;;;;;;;;5072941;28;20296;-86
2023/04/16 13:34:26;;;;;;;16.83;15.07;;;;;;;;;;5072620;28;20235;-86
2023/04/16 13:36:53;;;;;;;18.70;14.90;;;;;;;;;;5072169;28;20296;-86
2023/04/16 13:39:21;;;;;;;18.55;16.02;;;;;;;;;;5072667;28;20201;-86
2023/04/16 13:41:50;;;;;;;19.55;16.75;;;;;;;;;;5072425;28;20300;-86
2023/04/16 13:44:17;;;;;;;21.75;18.15;;;;;;;;;;5072384;28;20243;-86
2023/04/16 13:46:46;;;;;;;16.48;14.88;;;;;;;;;;5072581;28;20291;-85
2023/04/16 13:49:13;;;;;;;18.88;14.82;;;;;;;;;;5072422;28;20232;-85
2023/04/16 13:51:44;;;;;;;17.20;15.18;;;;;;;;;;5072440;28;20536;-86
2023/04/16 13:54:11;;;;;;;18.23;14.77;;;;;;;;;;5072361;28;20232;-87
2023/04/16 13:56:39;;;;;;;18.35;16.40;;;;;;;;;;5072489;28;20320;-86
2023/04/16 13:59:07;;;;;;;19.23;16.38;;;;;;;;;;5071474;28;20193;-86
2023/04/16 14:01:34;;;;;;;17.55;15.68;;;;;;;;;;5072242;28;20302;-87
2023/04/16 14:04:04;;;;;;;18.15;16.33;;;;;;;;;;5071897;28;20217;-85
2023/04/16 14:06:32;;;;;;;17.73;15.98;;;;;;;;;;5072609;28;20211;-86
2023/04/16 14:09:01;;;;;;;19.35;15.98;;;;;;;;;;5072326;28;20240;-86
2023/04/16 14:11:29;;;;;;;22.80;18.05;;;;;;;;;;5072180;28;20577;-85
2023/04/16 14:13:57;;;;;;;18.77;15.85;;;;;;;;;;5072773;28;20232;-85
2023/04/16 14:16:24;;;;;;;18.15;15.38;;;;;;;;;;5072484;28;20576;-85
2023/04/16 14:18:52;;;;;;;19.00;16.95;;;;;;;;;;5072525;28;20654;-87
2023/04/16 14:21:19;;;;;;;19.10;17.05;;;;;;;;;;5072274;28;20212;-86
2023/04/16 14:23:46;;;;;;;19.33;16.40;;;;;;;;;;5071836;28;20213;-86